Time;durP1;ratioP1;P1;durP2;ratioP2;P2;SDS_P1;SDS_P2;PMS_P1;PMS_P2;Temp;Humidity;BMP_temperature;BMP_pressure;BME280_temperature;BME280_humidity;BME280_pressure;Samples;Min_cycle;Max_cycle;Signal;HPM_P1;HPM_P2
2022/10/18 00:01:17;;;;;;;10.25;3.85;;;14.40;99.90;;;;;;6224652;22;20027;-89
2022/10/18 00:03:43;;;;;;;9.60;4.15;;;14.40;99.90;;;;;;6199587;22;20020;-89
2022/10/18 00:06:24;;;;;;;7.38;3.88;;;14.40;99.90;;;;;;6199834;22;20051;-88
2022/10/18 00:08:50;;;;;;;7.65;3.53;;;14.40;99.90;;;;;;6199446;22;20011;-92
2022/10/18 00:11:15;;;;;;;7.40;3.90;;;14.40;99.90;;;;;;6249682;22;20054;-91
2022/10/18 00:13:41;;;;;;;7.80;3.67;;;14.40;99.90;;;;;;6224711;22;20514;-90
2022/10/18 00:16:11;;;;;;;6.97;3.33;;;14.40;99.90;;;;;;6250064;22;20020;-90
2022/10/18 00:18:37;;;;;;;8.77;4.20;;;14.40;99.90;;;;;;6224584;22;20044;-87
2022/10/18 00:21:11;;;;;;;9.45;3.50;;;14.40;99.90;;;;;;6199813;22;20019;-91
2022/10/18 00:23:37;;;;;;;8.77;4.32;;;14.40;99.90;;;;;;6224437;22;20019;-88
2022/10/18 00:26:13;;;;;;;6.72;3.95;;;14.40;99.90;;;;;;6238667;22;20420;-89
2022/10/18 00:28:39;;;;;;;10.68;4.13;;;14.30;99.90;;;;;;6280811;22;20019;-89
2022/10/18 00:31:28;;;;;;;;;;;14.30;99.90;;;;;;6308349;22;20015;-88
2022/10/18 00:33:57;;;;;;;8.98;3.63;;;14.30;99.90;;;;;;6235349;22;19914;-89
2022/10/18 00:36:24;;;;;;;8.00;3.80;;;14.30;99.90;;;;;;6255186;22;20019;-89
2022/10/18 00:38:50;;;;;;;10.63;4.43;;;14.30;99.90;;;;;;6280625;22;20019;-89
2022/10/18 00:41:19;;;;;;;9.63;5.43;;;14.30;99.90;;;;;;6255171;22;20090;-92
2022/10/18 00:43:59;;;;;;;8.38;4.55;;;14.20;99.90;;;;;;6254687;22;20022;-88
2022/10/18 00:46:31;;;;;;;8.70;4.50;;;14.20;99.90;;;;;;6280522;22;20046;-87
2022/10/18 00:49:02;;;;;;;8.95;4.72;;;14.20;99.90;;;;;;6280266;22;20019;-87
2022/10/18 00:51:35;;;;;;;10.38;5.70;;;14.20;99.90;;;;;;6280562;22;20053;-94
2022/10/18 00:54:01;;;;;;;11.48;5.95;;;14.10;99.90;;;;;;6255037;22;20011;-89
2022/10/18 00:56:27;;;;;;;11.40;5.97;;;14.10;99.90;;;;;;6280654;22;20015;-89
2022/10/18 00:58:53;;;;;;;11.88;5.90;;;14.10;99.90;;;;;;6254881;22;20026;-87
2022/10/18 01:01:19;;;;;;;11.05;5.80;;;14.10;99.90;;;;;;6254583;22;20019;-92
2022/10/18 01:03:44;;;;;;;11.52;5.63;;;14.10;99.90;;;;;;6229645;22;20053;-95
2022/10/18 01:06:10;;;;;;;12.23;5.93;;;14.10;99.90;;;;;;6254853;22;20042;-93
2022/10/18 01:09:06;;;;;;;10.98;6.00;;;14.10;99.90;;;;;;6254518;22;20015;-90
2022/10/18 01:12:31;;;;;;;10.98;5.53;;;14.10;99.90;;;;;;6254484;22;20011;-92
2022/10/18 01:15:03;;;;;;;11.05;5.60;;;14.00;99.90;;;;;;6256542;22;20019;-88
2022/10/18 01:17:37;;;;;;;14.73;6.25;;;14.00;99.90;;;;;;6254345;22;20019;-88
2022/10/18 01:20:21;;;;;;;12.15;5.50;;;14.00;99.90;;;;;;6254598;22;20026;-94
2022/10/18 01:22:54;;;;;;;12.60;6.03;;;14.10;99.90;;;;;;6282037;22;20392;-89
2022/10/18 01:25:33;;;;;;;11.98;6.10;;;14.10;99.90;;;;;;6256375;22;20019;-90
2022/10/18 01:28:20;;;;;;;11.07;5.95;;;14.00;99.90;;;;;;6258124;22;20102;-89
2022/10/18 01:31:09;;;;;;;12.13;5.82;;;14.00;99.90;;;;;;6273476;22;19999;-89
2022/10/18 01:34:02;;;;;;;10.38;6.22;;;14.00;99.90;;;;;;6275043;22;20022;-88
2022/10/18 01:36:32;;;;;;;12.63;5.53;;;14.00;99.90;;;;;;6257895;22;20054;-88
2022/10/18 01:39:01;;;;;;;15.18;6.35;;;14.00;99.90;;;;;;6256454;22;20019;-88
2022/10/18 01:41:28;;;;;;;11.70;5.85;;;14.00;99.90;;;;;;6309511;22;20015;-89
2022/10/18 01:43:59;;;;;;;12.50;6.00;;;14.00;99.90;;;;;;6281983;22;20015;-89
2022/10/18 01:46:25;;;;;;;12.32;5.75;;;14.00;99.90;;;;;;6256573;22;20097;-88
2022/10/18 01:48:53;;;;;;;11.85;5.75;;;14.00;99.90;;;;;;6282147;22;20080;-94
2022/10/18 01:51:32;;;;;;;12.88;6.57;;;14.00;99.90;;;;;;6206455;22;20147;-93
2022/10/18 01:53:58;;;;;;;11.05;6.68;;;13.90;99.90;;;;;;6256605;22;20047;-89
2022/10/18 01:56:42;;;;;;;11.30;5.40;;;14.00;99.90;;;;;;6256465;22;20043;-93
2022/10/18 01:59:21;;;;;;;9.93;5.72;;;14.00;99.90;;;;;;6256527;22;20046;-89
2022/10/18 02:01:52;;;;;;;11.15;5.90;;;14.00;99.90;;;;;;6256117;22;20023;-96
2022/10/18 02:04:33;;;;;;;12.15;5.97;;;13.90;99.90;;;;;;6256085;22;20072;-89
2022/10/18 02:07:31;;;;;;;11.40;5.75;;;13.90;99.90;;;;;;6292392;22;20047;-91
2022/10/18 02:10:11;;;;;;;12.13;5.80;;;13.90;99.90;;;;;;6290909;22;20099;-89
2022/10/18 02:12:41;;;;;;;10.18;5.43;;;13.90;99.90;;;;;;6282095;22;20015;-90
2022/10/18 02:15:10;;;;;;;10.55;5.15;;;13.90;99.90;;;;;;6256365;22;20015;-89
2022/10/18 02:17:37;;;;;;;9.85;4.88;;;13.90;99.90;;;;;;6256260;22;20022;-94
2022/10/18 02:20:06;;;;;;;10.85;5.60;;;13.90;99.90;;;;;;6256270;22;20018;-89
2022/10/18 02:22:33;;;;;;;10.40;4.90;;;13.90;99.90;;;;;;6256404;22;20019;-96
2022/10/18 02:25:04;;;;;;;11.65;5.65;;;13.90;99.90;;;;;;6255843;22;20038;-89
2022/10/18 02:27:30;;;;;;;10.90;5.22;;;13.90;99.90;;;;;;6256240;22;20047;-93
2022/10/18 02:29:57;;;;;;;10.35;5.38;;;13.80;99.90;;;;;;6256017;22;20011;-90
2022/10/18 02:32:25;;;;;;;;;;;13.80;99.90;;;;;;6281678;22;20023;-91
2022/10/18 02:35:10;;;;;;;10.80;5.45;;;13.80;99.90;;;;;;6255998;22;19954;-90
2022/10/18 02:37:40;;;;;;;11.07;4.85;;;13.80;99.90;;;;;;6256437;22;20070;-94
2022/10/18 02:40:08;;;;;;;9.07;4.85;;;13.80;99.90;;;;;;6255926;22;20007;-95
2022/10/18 02:42:36;;;;;;;9.88;5.18;;;13.80;99.90;;;;;;6231006;22;20019;-93
2022/10/18 02:45:04;;;;;;;10.07;4.45;;;13.80;99.90;;;;;;6255800;22;20011;-89
2022/10/18 02:47:29;;;;;;;10.30;4.85;;;13.80;99.90;;;;;;6255951;22;20047;-89
2022/10/18 02:49:55;;;;;;;10.82;4.78;;;13.80;99.90;;;;;;6255869;22;20459;-91
2022/10/18 02:52:21;;;;;;;12.27;4.70;;;13.70;99.90;;;;;;6256128;22;20023;-90
2022/10/18 02:54:46;;;;;;;8.67;4.80;;;13.70;99.90;;;;;;6255577;22;20019;-89
2022/10/18 02:57:12;;;;;;;8.53;4.80;;;13.70;99.90;;;;;;6230683;22;20588;-89
2022/10/18 02:59:38;;;;;;;10.38;4.68;;;13.70;99.90;;;;;;6255783;22;20460;-89
2022/10/18 03:02:04;;;;;;;9.03;4.57;;;13.70;99.90;;;;;;6255505;22;20047;-92
2022/10/18 03:04:29;;;;;;;9.53;4.43;;;13.70;99.90;;;;;;6255989;22;20242;-89
2022/10/18 03:06:55;;;;;;;9.10;4.77;;;13.70;99.90;;;;;;6281294;22;20015;-92
2022/10/18 03:09:21;;;;;;;8.70;4.37;;;13.70;99.90;;;;;;6281052;22;20343;-93
2022/10/18 03:11:46;;;;;;;7.97;4.23;;;13.70;99.90;;;;;;6255837;22;20026;-89
2022/10/18 03:14:12;;;;;;;9.13;4.67;;;13.60;99.90;;;;;;6280942;22;20253;-88
2022/10/18 03:16:38;;;;;;;8.43;4.63;;;13.60;99.90;;;;;;6255500;22;20329;-91
2022/10/18 03:19:03;;;;;;;8.60;4.85;;;13.60;99.90;;;;;;6230419;22;20448;-88
2022/10/18 03:21:29;;;;;;;8.53;4.60;;;13.60;99.90;;;;;;6255572;22;20024;-89
2022/10/18 03:23:55;;;;;;;8.77;4.05;;;13.60;99.90;;;;;;6255472;22;20371;-90
2022/10/18 03:26:21;;;;;;;7.40;4.25;;;13.60;99.90;;;;;;6280943;22;20022;-90
2022/10/18 03:28:47;;;;;;;9.43;4.32;;;13.50;99.90;;;;;;6255562;22;20019;-94
2022/10/18 03:31:12;;;;;;;8.13;4.30;;;13.50;99.90;;;;;;6230154;22;20019;-88
2022/10/18 03:33:38;;;;;;;9.70;4.53;;;13.50;99.90;;;;;;6280784;22;20245;-89
2022/10/18 03:36:04;;;;;;;9.43;4.60;;;13.50;99.90;;;;;;6256169;22;20049;-91
2022/10/18 03:38:30;;;;;;;8.48;4.60;;;13.50;99.90;;;;;;6255317;22;20022;-91
2022/10/18 03:40:55;;;;;;;10.10;4.17;;;13.50;99.90;;;;;;6255328;22;20073;-90
2022/10/18 03:43:22;;;;;;;8.75;4.35;;;13.40;99.90;;;;;;6280784;22;20470;-89
2022/10/18 03:45:47;;;;;;;9.90;4.68;;;13.40;99.90;;;;;;6255421;22;20034;-89
2022/10/18 03:48:13;;;;;;;9.07;4.45;;;13.40;99.90;;;;;;6280445;22;20097;-92
2022/10/18 03:50:39;;;;;;;10.35;4.88;;;13.40;99.90;;;;;;6255027;22;20065;-92
2022/10/18 03:53:05;;;;;;;8.85;4.55;;;13.40;99.90;;;;;;6255132;22;20076;-89
2022/10/18 03:55:31;;;;;;;7.17;3.97;;;13.40;99.90;;;;;;6254919;22;20099;-94
2022/10/18 03:57:56;;;;;;;9.20;4.73;;;13.40;99.90;;;;;;6204683;22;20329;-90
2022/10/18 04:00:22;;;;;;;8.07;4.35;;;13.30;99.90;;;;;;6280862;22;20020;-89
2022/10/18 04:02:48;;;;;;;8.80;5.10;;;13.40;99.90;;;;;;6229975;22;20015;-91
2022/10/18 04:05:13;;;;;;;7.25;4.00;;;13.30;99.90;;;;;;6254940;22;20463;-91
2022/10/18 04:07:39;;;;;;;9.38;4.88;;;13.40;99.90;;;;;;6229728;22;20011;-90
2022/10/18 04:10:06;;;;;;;9.40;4.63;;;13.30;99.90;;;;;;6255005;22;20112;-91
2022/10/18 04:12:31;;;;;;;;;;;13.30;99.90;;;;;;6258609;22;20063;-90
2022/10/18 04:14:57;;;;;;;8.07;3.83;;;13.30;99.90;;;;;;6304118;22;19906;-88
2022/10/18 04:17:23;;;;;;;8.07;3.93;;;13.40;99.90;;;;;;6247054;22;20019;-89
2022/10/18 04:19:48;;;;;;;9.32;4.63;;;13.30;99.90;;;;;;6231869;22;20053;-89
2022/10/18 04:22:14;;;;;;;7.22;4.13;;;13.30;99.90;;;;;;6229973;22;20019;-89
2022/10/18 04:24:40;;;;;;;8.02;4.30;;;13.40;99.90;;;;;;6229821;22;20029;-91
2022/10/18 04:27:06;;;;;;;8.00;4.43;;;13.30;99.90;;;;;;6229582;22;20445;-88
2022/10/18 04:29:32;;;;;;;8.68;4.53;;;13.30;99.90;;;;;;6280753;22;20249;-93
2022/10/18 04:31:59;;;;;;;9.50;5.13;;;13.30;99.90;;;;;;6280369;22;20058;-88
2022/10/18 04:34:25;;;;;;;7.47;4.13;;;13.30;99.90;;;;;;6255248;22;20108;-90
2022/10/18 04:36:50;;;;;;;10.10;5.25;;;13.40;99.90;;;;;;6255210;22;20457;-94
2022/10/18 04:39:16;;;;;;;9.37;4.33;;;13.40;99.90;;;;;;6254857;22;20007;-91
2022/10/18 04:41:42;;;;;;;8.63;4.10;;;13.30;99.90;;;;;;6280448;22;20025;-88
2022/10/18 04:44:08;;;;;;;10.27;4.37;;;13.30;99.90;;;;;;6229870;22;20014;-88
2022/10/18 04:46:34;;;;;;;7.30;4.10;;;13.30;99.90;;;;;;6254808;22;20401;-90
2022/10/18 04:49:00;;;;;;;9.88;4.32;;;13.30;99.90;;;;;;6255044;22;20015;-88
2022/10/18 04:51:29;;;;;;;8.68;4.03;;;13.20;99.90;;;;;;6255160;22;20018;-88
2022/10/18 04:53:55;;;;;;;8.15;4.43;;;13.20;99.90;;;;;;6263245;22;20047;-89
2022/10/18 04:56:21;;;;;;;7.47;3.80;;;13.20;99.90;;;;;;6255854;22;20015;-91
2022/10/18 04:58:47;;;;;;;11.90;4.50;;;13.20;99.90;;;;;;6282236;22;20103;-92
2022/10/18 05:01:13;;;;;;;8.35;4.25;;;13.20;99.90;;;;;;6256776;22;20053;-88
2022/10/18 05:03:39;;;;;;;7.03;3.63;;;13.20;99.90;;;;;;6231372;22;20015;-89
2022/10/18 05:06:05;;;;;;;9.35;4.40;;;13.20;99.90;;;;;;6256833;22;20015;-91
2022/10/18 05:08:33;;;;;;;8.30;4.28;;;13.20;99.90;;;;;;6231817;22;20026;-89
2022/10/18 05:11:00;;;;;;;9.80;4.53;;;13.10;99.90;;;;;;6257136;22;20082;-91
2022/10/18 05:13:27;;;;;;;;;;;13.10;99.90;;;;;;6282633;22;20102;-89
2022/10/18 05:15:52;;;;;;;7.88;4.30;;;13.10;99.90;;;;;;6256769;22;19914;-88
2022/10/18 05:18:18;;;;;;;8.88;4.55;;;13.10;99.90;;;;;;6231735;22;20016;-95
2022/10/18 05:20:45;;;;;;;9.68;5.30;;;13.10;99.90;;;;;;6257024;22;20019;-89
2022/10/18 05:23:11;;;;;;;9.75;4.78;;;13.00;99.90;;;;;;6256660;22;20062;-89
2022/10/18 05:25:38;;;;;;;9.20;4.32;;;13.00;99.90;;;;;;6255839;22;20512;-89
2022/10/18 05:28:04;;;;;;;12.10;4.90;;;13.00;99.90;;;;;;6255201;22;20023;-88
2022/10/18 05:30:30;;;;;;;8.45;4.50;;;12.90;99.90;;;;;;6254711;22;20011;-94
2022/10/18 05:32:56;;;;;;;7.73;4.10;;;12.90;99.90;;;;;;6254971;22;20101;-91
2022/10/18 05:35:21;;;;;;;9.40;4.60;;;12.90;99.90;;;;;;6229915;22;20015;-94
2022/10/18 05:37:47;;;;;;;7.53;3.97;;;12.90;99.90;;;;;;6254905;22;20022;-93
2022/10/18 05:40:13;;;;;;;6.60;3.93;;;12.90;99.90;;;;;;6255058;22;20758;-91
2022/10/18 05:42:38;;;;;;;7.90;4.32;;;12.80;99.90;;;;;;6254641;22;20033;-90
2022/10/18 05:45:04;;;;;;;6.57;3.77;;;12.80;99.90;;;;;;6254898;22;20022;-95
2022/10/18 05:47:30;;;;;;;7.10;3.75;;;12.80;99.90;;;;;;6255384;22;20146;-90
2022/10/18 05:49:56;;;;;;;6.27;3.27;;;12.70;99.90;;;;;;6229770;22;20015;-90
2022/10/18 05:52:22;;;;;;;7.78;3.85;;;12.70;99.90;;;;;;6254892;22;20472;-91
2022/10/18 05:54:47;;;;;;;8.15;3.80;;;12.60;99.90;;;;;;6229658;22;20038;-90
2022/10/18 05:57:13;;;;;;;9.17;4.13;;;12.60;99.90;;;;;;6227651;22;20449;-92
2022/10/18 05:59:39;;;;;;;6.70;3.13;;;12.50;99.90;;;;;;6252941;22;20257;-90
2022/10/18 06:02:05;;;;;;;6.77;3.70;;;12.50;99.90;;;;;;6253675;22;20038;-90
2022/10/18 06:04:30;;;;;;;10.15;4.28;;;12.50;99.90;;;;;;6228945;22;20246;-91
2022/10/18 06:06:56;;;;;;;7.85;4.13;;;12.40;99.90;;;;;;6254006;22;20106;-92
2022/10/18 06:09:22;;;;;;;9.70;4.00;;;12.40;99.90;;;;;;6228846;22;20070;-95
2022/10/18 06:11:48;;;;;;;9.87;3.80;;;12.40;99.90;;;;;;6254639;22;20253;-91
2022/10/18 06:14:13;;;;;;;7.60;3.97;;;12.40;99.90;;;;;;6229650;22;20011;-94
2022/10/18 06:16:39;;;;;;;8.87;4.03;;;12.40;99.90;;;;;;6229807;22;20253;-95
2022/10/18 06:19:05;;;;;;;7.73;3.63;;;12.40;99.90;;;;;;6255021;22;20074;-94
2022/10/18 06:21:30;;;;;;;9.07;4.63;;;12.40;99.90;;;;;;6257932;22;20019;-90
2022/10/18 06:23:58;;;;;;;7.00;3.20;;;12.40;99.90;;;;;;6229832;22;20264;-94
2022/10/18 06:26:25;;;;;;;7.85;4.13;;;12.40;99.90;;;;;;6226537;22;237357;-95
2022/10/18 06:28:51;;;;;;;8.20;3.88;;;12.40;99.90;;;;;;6225542;22;20027;-95
2022/10/18 06:31:17;;;;;;;6.37;2.90;;;12.30;99.90;;;;;;6256495;22;20046;-90
2022/10/18 06:33:44;;;;;;;6.15;2.85;;;12.30;99.90;;;;;;6231215;22;20019;-90
2022/10/18 06:36:13;;;;;;;8.15;2.97;;;12.20;99.90;;;;;;6256424;22;20054;-90
2022/10/18 06:38:40;;;;;;;7.50;3.63;;;12.20;99.90;;;;;;6256731;22;20094;-96
2022/10/18 06:41:06;;;;;;;6.65;2.95;;;12.20;99.90;;;;;;6258301;22;20015;-90
2022/10/18 06:43:32;;;;;;;6.22;2.80;;;12.20;99.90;;;;;;6231389;22;20089;-90
2022/10/18 06:46:00;;;;;;;7.07;3.40;;;12.20;99.90;;;;;;6256573;22;20348;-93
2022/10/18 06:48:26;;;;;;;6.72;3.20;;;12.20;99.90;;;;;;6256956;22;20022;-91
2022/10/18 06:50:54;;;;;;;5.75;2.53;;;12.20;99.90;;;;;;6256214;22;20015;-89
2022/10/18 06:53:20;;;;;;;6.20;2.70;;;12.20;99.90;;;;;;6256297;22;20456;-93
2022/10/18 06:55:46;;;;;;;7.22;2.35;;;12.20;99.90;;;;;;6258450;22;20053;-91
2022/10/18 06:58:11;;;;;;;5.03;2.40;;;12.20;99.90;;;;;;6248499;22;20018;-91
2022/10/18 07:00:38;;;;;;;5.45;2.33;;;12.20;99.90;;;;;;6280671;22;20019;-90
2022/10/18 07:03:04;;;;;;;5.47;2.65;;;12.10;99.90;;;;;;6238745;22;20113;-89
2022/10/18 07:05:30;;;;;;;5.47;2.50;;;12.10;99.90;;;;;;6255951;22;20477;-93
2022/10/18 07:07:56;;;;;;;;;;;12.10;99.90;;;;;;6256422;22;20449;-93
2022/10/18 07:10:23;;;;;;;6.15;2.67;;;12.10;99.90;;;;;;6255989;22;19914;-91
2022/10/18 07:12:48;;;;;;;6.45;2.88;;;12.10;99.90;;;;;;6255672;22;20349;-94
2022/10/18 07:15:16;;;;;;;6.53;2.80;;;12.10;99.90;;;;;;6256042;22;20072;-92
2022/10/18 07:17:44;;;;;;;6.13;2.63;;;12.10;99.90;;;;;;6255579;22;20245;-90
2022/10/18 07:20:11;;;;;;;7.43;3.20;;;12.10;99.90;;;;;;6255498;22;20090;-95
2022/10/18 07:22:39;;;;;;;7.18;3.25;;;12.20;99.90;;;;;;6255782;22;20050;-93
2022/10/18 07:25:06;;;;;;;7.28;2.72;;;12.20;99.90;;;;;;6230794;22;20019;-89
2022/10/18 07:27:36;;;;;;;7.35;2.95;;;12.20;99.90;;;;;;6281402;22;20085;-89
2022/10/18 07:30:04;;;;;;;6.45;2.97;;;12.20;99.90;;;;;;6255756;22;20064;-90
2022/10/18 07:32:30;;;;;;;5.88;2.72;;;12.20;99.90;;;;;;6255391;22;20108;-94
2022/10/18 07:34:55;;;;;;;5.93;3.03;;;12.30;99.90;;;;;;6255531;22;20379;-91
2022/10/18 07:37:21;;;;;;;5.47;2.70;;;12.30;99.90;;;;;;6257635;22;20098;-89
2022/10/18 07:39:47;;;;;;;7.67;2.47;;;12.30;99.90;;;;;;6230287;22;20114;-91
2022/10/18 07:42:12;;;;;;;7.03;2.50;;;12.40;99.90;;;;;;6230250;22;20023;-93
2022/10/18 07:44:38;;;;;;;5.43;2.63;;;12.40;99.90;;;;;;6255490;22;20745;-88
2022/10/18 07:47:07;;;;;;;5.55;2.42;;;12.50;99.90;;;;;;6255521;22;20022;-91
2022/10/18 07:49:33;;;;;;;5.50;2.83;;;12.50;99.90;;;;;;6205293;22;20026;-92
2022/10/18 07:51:59;;;;;;;5.95;2.35;;;12.50;99.90;;;;;;6255913;22;20390;-92
2022/10/18 07:54:25;;;;;;;8.07;3.00;;;12.60;99.90;;;;;;6230298;22;20505;-90
2022/10/18 07:56:50;;;;;;;6.15;2.78;;;12.60;99.90;;;;;;6255309;22;20052;-92
2022/10/18 07:59:16;;;;;;;6.57;2.37;;;12.60;99.90;;;;;;6255751;22;20011;-89
2022/10/18 08:01:42;;;;;;;5.65;2.78;;;12.70;99.90;;;;;;6255635;22;20437;-91
2022/10/18 08:04:09;;;;;;;17.10;2.77;;;12.70;99.90;;;;;;6255709;22;20043;-94
2022/10/18 08:06:35;;;;;;;5.40;2.10;;;12.70;99.90;;;;;;6255573;22;20250;-93
2022/10/18 08:09:01;;;;;;;5.75;2.00;;;12.70;99.90;;;;;;6255769;22;20095;-94
2022/10/18 08:11:52;;;;;;;6.13;1.80;;;12.80;99.90;;;;;;6231406;22;20015;-91
2022/10/18 08:14:18;;;;;;;4.47;1.73;;;12.80;99.90;;;;;;6213567;22;20011;-90
2022/10/18 08:16:44;;;;;;;4.78;1.80;;;12.80;99.90;;;;;;6254835;22;20058;-96
2022/10/18 08:19:09;;;;;;;7.25;1.98;;;12.90;99.90;;;;;;6230551;22;20011;-90
2022/10/18 08:21:35;;;;;;;6.80;1.73;;;12.90;99.90;;;;;;6255572;22;20443;-92
2022/10/18 08:24:01;;;;;;;5.77;1.80;;;12.90;99.90;;;;;;6256031;22;20098;-90
2022/10/18 08:26:26;;;;;;;5.30;1.63;;;12.90;99.90;;;;;;6258170;22;20015;-96
2022/10/18 08:28:52;;;;;;;4.53;1.43;;;13.00;99.90;;;;;;6206508;22;20315;-90
2022/10/18 08:31:18;;;;;;;4.77;1.60;;;13.00;99.90;;;;;;6230944;22;20249;-88
2022/10/18 08:33:45;;;;;;;3.97;1.65;;;13.00;99.90;;;;;;6233846;22;20034;-94
2022/10/18 08:36:13;;;;;;;3.80;1.40;;;13.10;99.90;;;;;;6233319;22;20022;-90
2022/10/18 08:38:40;;;;;;;3.88;1.60;;;13.10;99.90;;;;;;6257599;22;20149;-91
2022/10/18 08:41:12;;;;;;;5.43;1.52;;;13.20;99.90;;;;;;6282515;22;20057;-91
2022/10/18 08:44:16;;;;;;;3.38;1.15;;;13.10;99.90;;;;;;6258201;22;20015;-95
2022/10/18 08:46:49;;;;;;;2.95;1.15;;;13.20;99.90;;;;;;6257357;22;20326;-91
2022/10/18 08:49:27;;;;;;;3.92;1.10;;;13.30;99.90;;;;;;6257771;22;20007;-90
2022/10/18 08:51:55;;;;;;;2.58;0.60;;;13.30;99.90;;;;;;6257634;22;20089;-91
2022/10/18 08:54:25;;;;;;;2.78;0.93;;;13.30;99.90;;;;;;6257221;22;20103;-89
2022/10/18 09:04:53;;;;;;;2.85;1.13;;;13.40;99.90;;;;;;6316319;22;20475;-92
2022/10/18 09:07:28;;;;;;;3.35;1.00;;;13.40;99.90;;;;;;6296463;22;20047;-95
2022/10/18 09:10:05;;;;;;;2.65;0.77;;;13.50;99.90;;;;;;6257639;22;20018;-96
2022/10/18 09:12:31;;;;;;;;;;;13.50;99.90;;;;;;6261265;22;20013;-93
2022/10/18 09:15:07;;;;;;;3.95;0.73;;;13.50;99.90;;;;;;6259438;22;19943;-94
2022/10/18 09:18:08;;;;;;;3.83;0.90;;;13.60;99.90;;;;;;6258979;22;20042;-91
2022/10/18 09:20:43;;;;;;;1.50;0.60;;;13.60;99.90;;;;;;6259092;22;20019;-96
2022/10/18 09:23:29;;;;;;;1.58;0.75;;;13.60;99.90;;;;;;6258240;22;20017;-94
2022/10/18 09:26:24;;;;;;;6.65;0.60;;;13.70;99.90;;;;;;6258513;22;20026;-95
2022/10/18 09:55:30;;;;;;;2.20;0.50;;;14.30;99.90;;;;;;6275573;22;20030;-90
2022/10/18 09:58:01;;;;;;;5.53;1.27;;;14.30;99.90;;;;;;6225022;22;20054;-95
2022/10/18 10:00:49;;;;;;;3.22;0.60;;;14.40;99.90;;;;;;6226193;22;20349;-90
2022/10/18 10:03:15;;;;;;;2.28;0.43;;;14.40;99.90;;;;;;6226978;22;20047;-90
2022/10/18 10:05:42;;;;;;;4.47;0.50;;;14.50;99.90;;;;;;6226745;22;20058;-95
2022/10/18 10:08:32;;;;;;;2.65;0.50;;;14.50;99.90;;;;;;6226586;22;20043;-94
2022/10/18 10:10:57;;;;;;;4.97;1.02;;;14.60;99.90;;;;;;6226575;22;20050;-94
2022/10/18 10:13:26;;;;;;;3.50;0.47;;;14.60;99.90;;;;;;6226214;22;20016;-93
2022/10/18 10:16:00;;;;;;;5.28;0.60;;;14.60;99.90;;;;;;6227591;22;20023;-90
2022/10/18 10:18:37;;;;;;;3.28;0.60;;;14.60;99.90;;;;;;6226431;22;20012;-93
2022/10/18 10:21:38;;;;;;;1.52;0.40;;;14.70;99.90;;;;;;6226537;22;20531;-93
2022/10/18 10:29:46;;;;;;;2.22;0.40;;;14.90;99.90;;;;;;6277484;22;20020;-92
2022/10/18 10:32:16;;;;;;;1.30;0.40;;;15.00;99.90;;;;;;6224082;22;20031;-95
2022/10/18 10:34:42;;;;;;;2.80;0.63;;;15.10;99.90;;;;;;6226134;22;20349;-90
2022/10/18 10:37:30;;;;;;;4.45;0.70;;;15.20;99.90;;;;;;6226347;22;20026;-92
2022/10/18 10:40:25;;;;;;;4.78;0.60;;;15.30;99.90;;;;;;6226443;22;20075;-91
2022/10/18 10:43:17;;;;;;;3.25;0.60;;;15.30;99.90;;;;;;6225469;22;20058;-91
2022/10/18 10:58:52;;;;;;;2.88;0.40;;;15.50;99.90;;;;;;6276787;22;20024;-89
2022/10/18 11:01:23;;;;;;;2.97;1.10;;;15.60;99.90;;;;;;6226723;22;20020;-95
2022/10/18 11:30:19;;;;;;;3.70;0.43;;;15.60;99.90;;;;;;6278573;22;20024;-92
2022/10/18 11:33:14;;;;;;;1.85;0.30;;;15.60;99.90;;;;;;6240167;22;20023;-96
2022/10/18 11:35:44;;;;;;;1.45;0.30;;;15.80;99.90;;;;;;6231288;22;20396;-96
2022/10/18 11:38:16;;;;;;;3.53;0.43;;;15.90;99.90;;;;;;6228900;22;20385;-96
2022/10/18 11:41:40;;;;;;;3.17;0.32;;;15.90;99.90;;;;;;6229245;22;20022;-94
2022/10/18 11:44:34;;;;;;;4.35;0.43;;;15.90;99.90;;;;;;6227033;22;20327;-96
2022/10/18 11:47:33;;;;;;;6.88;0.98;;;16.00;99.90;;;;;;6239484;22;20015;-95
2022/10/18 14:21:33;;;;;;;3.65;0.60;;;15.30;99.90;;;;;;6277533;22;20027;-92
2022/10/18 14:23:59;;;;;;;1.98;0.40;;;15.30;99.90;;;;;;6226209;22;20473;-93
2022/10/18 14:26:28;;;;;;;3.45;0.60;;;15.30;99.90;;;;;;6226795;22;20047;-93
2022/10/18 14:29:14;;;;;;;3.33;0.60;;;15.30;99.90;;;;;;6272668;22;20008;-90
2022/10/18 14:31:42;;;;;;;6.10;0.60;;;15.30;99.90;;;;;;6251206;22;20015;-94
2022/10/18 14:34:14;;;;;;;1.00;0.20;;;15.30;99.90;;;;;;6227276;22;20477;-92
2022/10/18 14:36:41;;;;;;;2.20;0.32;;;15.10;99.90;;;;;;6225850;22;20020;-93
2022/10/18 14:39:19;;;;;;;4.53;0.30;;;15.10;99.90;;;;;;6226117;22;20022;-94
2022/10/18 15:12:17;;;;;;;1.42;0.32;;;14.80;99.90;;;;;;6276875;22;20020;-94
2022/10/18 15:14:43;;;;;;;5.30;1.55;;;14.80;99.90;;;;;;6225708;22;20047;-95
2022/10/18 15:17:19;;;;;;;4.97;0.77;;;14.80;99.90;;;;;;6200834;22;20020;-94
2022/10/18 15:19:58;;;;;;;4.28;0.50;;;14.70;99.90;;;;;;6225900;22;20034;-94
2022/10/18 15:22:26;;;;;;;1.95;0.30;;;14.70;99.90;;;;;;6225633;22;20027;-94
2022/10/18 15:25:20;;;;;;;2.17;0.20;;;14.70;99.90;;;;;;6225161;22;20405;-92
2022/10/18 15:28:34;;;;;;;2.45;0.20;;;14.60;99.90;;;;;;6225065;22;20016;-93
2022/10/18 15:31:41;;;;;;;1.77;0.30;;;14.60;99.90;;;;;;6171458;22;20015;-93
2022/10/18 15:34:57;;;;;;;2.60;0.32;;;14.60;99.90;;;;;;6226462;22;20341;-92
2022/10/18 15:37:49;;;;;;;1.75;0.30;;;14.60;99.90;;;;;;6224598;22;20453;-95
2022/10/18 15:40:56;;;;;;;1.27;0.20;;;14.50;99.90;;;;;;6253862;22;20016;-93
2022/10/18 15:43:52;;;;;;;;;;;14.50;99.90;;;;;;6280806;22;20019;-95
2022/10/18 15:50:50;;;;;;;0.98;0.20;;;14.50;99.90;;;;;;6224258;22;20030;-94
2022/10/18 15:53:36;;;;;;;0.90;0.20;;;14.40;99.90;;;;;;6255456;22;20027;-94
2022/10/18 15:56:04;;;;;;;2.97;0.33;;;14.40;99.90;;;;;;6255578;22;20019;-94
2022/10/18 15:58:46;;;;;;;1.85;0.20;;;14.40;99.90;;;;;;6255518;22;20015;-93
2022/10/18 16:01:41;;;;;;;0.35;0.17;;;14.40;99.90;;;;;;6256081;22;20368;-93
2022/10/18 16:04:24;;;;;;;0.40;0.20;;;14.30;99.90;;;;;;6255651;22;20023;-93
2022/10/18 16:06:50;;;;;;;0.93;0.30;;;14.30;99.90;;;;;;6255510;22;20050;-93
2022/10/18 16:09:18;;;;;;;1.30;0.30;;;14.30;99.90;;;;;;6281437;22;20012;-94
2022/10/18 16:11:45;;;;;;;2.13;0.30;;;14.30;99.90;;;;;;6255733;22;20090;-94
2022/10/18 16:14:12;;;;;;;2.10;0.30;;;14.30;99.90;;;;;;6255629;22;20023;-94
2022/10/18 16:17:43;;;;;;;3.63;0.82;;;14.20;99.90;;;;;;6255779;22;20020;-93
2022/10/18 16:21:03;;;;;;;;;;;;;;;;;;;;;
2022/10/18 16:24:14;;;;;;;12.77;3.28;;;14.20;99.90;;;;;;6269949;22;20017;-94
2022/10/18 16:27:09;;;;;;;2.33;0.50;;;14.10;99.90;;;;;;6217300;22;20026;-93
2022/10/18 16:29:35;;;;;;;1.65;0.40;;;14.10;99.90;;;;;;6231713;22;20063;-94
2022/10/18 16:32:01;;;;;;;1.73;0.30;;;14.10;99.90;;;;;;6230401;22;20074;-93
2022/10/18 16:34:27;;;;;;;2.47;0.40;;;14.00;99.90;;;;;;6255840;22;20234;-93
2022/10/18 16:36:52;;;;;;;2.28;0.28;;;14.00;99.90;;;;;;6267332;22;20003;-90
2022/10/18 16:39:20;;;;;;;3.25;0.30;;;14.00;99.90;;;;;;6256927;22;20050;-93
2022/10/18 16:48:57;;;;;;;1.92;0.35;;;14.00;99.90;;;;;;6285122;22;20027;-94
2022/10/18 17:05:18;;;;;;;1.50;0.30;;;13.80;99.90;;;;;;6278580;22;20070;-92
2022/10/18 17:07:45;;;;;;;1.85;0.30;;;13.80;99.90;;;;;;6207066;22;20081;-92
2022/10/18 17:10:13;;;;;;;1.25;0.50;;;13.80;99.90;;;;;;6258317;22;20455;-92
2022/10/18 17:12:58;;;;;;;2.03;0.38;;;13.80;99.90;;;;;;6275371;22;20003;-90
2022/10/18 17:15:27;;;;;;;1.95;0.32;;;13.80;99.90;;;;;;6282288;22;20023;-92
2022/10/18 17:17:52;;;;;;;2.53;0.75;;;13.80;99.90;;;;;;6236940;22;20019;-92
2022/10/18 17:20:23;;;;;;;1.40;0.30;;;13.80;99.90;;;;;;6232360;22;20021;-93
2022/10/18 17:22:49;;;;;;;4.10;0.30;;;13.80;99.90;;;;;;6257212;22;20016;-92
2022/10/18 17:25:18;;;;;;;3.35;0.93;;;13.80;99.90;;;;;;6257278;22;20025;-92
2022/10/18 17:27:49;;;;;;;9.35;4.32;;;13.80;99.90;;;;;;6256994;22;20015;-92
2022/10/18 17:30:37;;;;;;;10.82;4.97;;;13.80;99.90;;;;;;6256955;22;20081;-92
2022/10/18 17:33:04;;;;;;;14.70;4.70;;;13.80;99.90;;;;;;6231975;22;20064;-92
2022/10/18 17:35:30;;;;;;;14.05;5.22;;;13.80;99.90;;;;;;6232010;22;20022;-92
2022/10/18 17:37:56;;;;;;;10.70;4.38;;;13.80;99.90;;;;;;6257040;22;20015;-92
2022/10/18 17:40:22;;;;;;;5.20;1.88;;;13.70;99.90;;;;;;6257149;22;20065;-92
2022/10/18 17:42:52;;;;;;;4.93;0.80;;;13.70;99.90;;;;;;6257206;22;20102;-92
2022/10/18 17:45:20;;;;;;;2.50;0.70;;;13.70;99.90;;;;;;6232131;22;20019;-92
2022/10/18 17:47:46;;;;;;;1.55;0.40;;;13.70;99.90;;;;;;6257329;22;20041;-92
2022/10/18 17:50:13;;;;;;;1.45;0.40;;;13.70;99.90;;;;;;6256882;22;20019;-93
2022/10/18 17:52:42;;;;;;;;;;;13.70;99.90;;;;;;6257577;22;20435;-92
2022/10/18 17:55:09;;;;;;;2.78;1.20;;;13.70;99.90;;;;;;6256528;22;19922;-92
2022/10/18 17:57:35;;;;;;;;;;;13.70;99.90;;;;;;6257354;22;20046;-93